Time,TemperatureF,DewpointF,PressureIn,WindDirection,WindDirectionDegrees,WindSpeedMPH,WindSpeedGustMPH,Humidity,HourlyPrecipIn,Conditions,Clouds,dailyrainin,SoftwareType,DateUTC
2013-08-14 00:23:00,67.0,65.0,-100.00,SW,234,1.0,2.0,91,0.00,,,-99.99,,2013-08-14 04:23:00,
2013-08-14 00:32:00,67.0,65.0,-100.00,SW,234,1.0,2.0,91,0.00,,,-99.99,,2013-08-14 04:32:00,
2013-08-14 00:52:00,67.0,64.0,-100.00,WSW,246,1.0,2.0,91,0.00,,,-99.99,,2013-08-14 04:52:00,
2013-08-14 01:12:00,67.0,64.0,-100.00,WSW,241,1.0,2.0,92,0.00,,,-99.99,,2013-08-14 05:12:00,
2013-08-14 01:22:00,66.0,64.0,-100.00,SW,227,1.0,2.0,92,0.00,,,-99.99,,2013-08-14 05:22:00,
2013-08-14 01:32:00,66.0,64.0,-100.00,SW,227,1.0,2.0,92,0.00,,,-99.99,,2013-08-14 05:32:00,
2013-08-14 01:52:00,66.0,64.0,-100.00,NW,311,0.0,2.0,92,0.00,,,-99.99,,2013-08-14 05:52:00,
2013-08-14 02:11:00,66.0,64.0,-100.00,SSW,202,2.0,4.0,93,0.00,,,-99.99,,2013-08-14 06:11:00,
2013-08-14 02:21:00,67.0,65.0,-100.00,SW,234,1.0,3.0,93,0.00,,,-99.99,,2013-08-14 06:21:00,
2013-08-14 02:32:00,67.0,65.0,-100.00,SW,234,1.0,3.0,93,0.00,,,-99.99,,2013-08-14 06:32:00,
2013-08-14 02:52:00,66.0,64.0,-100.00,WSW,256,1.0,3.0,93,0.00,,,-99.99,,2013-08-14 06:52:00,
2013-08-14 03:11:00,67.0,64.0,-100.00,SSW,209,1.0,3.0,93,0.00,,,-99.99,,2013-08-14 07:11:00,
2013-08-14 03:21:00,67.0,65.0,-100.00,WSW,257,0.0,2.0,93,0.00,,,-99.99,,2013-08-14 07:21:00,
2013-08-14 03:32:00,67.0,65.0,-100.00,WSW,257,0.0,2.0,93,0.00,,,-99.99,,2013-08-14 07:32:00,
2013-08-14 03:52:00,66.0,64.0,-100.00,WNW,289,0.0,1.0,93,0.00,,,-99.99,,2013-08-14 07:52:00,
2013-08-14 04:11:00,66.0,64.0,-100.00,West,264,1.0,1.0,93,0.00,,,-99.99,,2013-08-14 08:11:00,
2013-08-14 04:21:00,65.0,63.0,-100.00,WNW,298,0.0,2.0,93,0.00,,,-99.99,,2013-08-14 08:21:00,
2013-08-14 04:31:00,65.0,63.0,-100.00,WNW,298,0.0,2.0,93,0.00,,,-99.99,,2013-08-14 08:31:00,
2013-08-14 04:52:00,65.0,63.0,-100.00,West,280,0.0,1.0,93,0.00,,,-99.99,,2013-08-14 08:52:00,
2013-08-14 05:11:00,64.0,62.0,-100.00,WNW,299,0.0,1.0,93,0.00,,,-99.99,,2013-08-14 09:11:00,
2013-08-14 05:21:00,63.0,62.0,-100.00,SW,236,1.0,2.0,94,0.00,,,-99.99,,2013-08-14 09:21:00,
2013-08-14 05:33:00,63.0,62.0,-100.00,SW,236,1.0,2.0,94,0.00,,,-99.99,,2013-08-14 09:33:00,
2013-08-14 05:53:00,63.0,61.0,-100.00,NW,311,0.0,1.0,94,0.00,,,-99.99,,2013-08-14 09:53:00,
2013-08-14 06:23:00,62.0,60.0,-100.00,SW,234,1.0,2.0,94,0.00,,,-99.99,,2013-08-14 10:23:00,
2013-08-14 06:32:00,62.0,60.0,-100.00,SW,234,1.0,2.0,94,0.00,,,-99.99,,2013-08-14 10:32:00,
2013-08-14 07:11:00,61.0,60.0,-100.00,SSW,210,1.0,3.0,94,0.00,,,-99.99,,2013-08-14 11:11:00,
2013-08-14 07:21:00,60.0,59.0,-100.00,WSW,254,0.0,2.0,94,0.00,,,-99.99,,2013-08-14 11:21:00,
2013-08-14 07:32:00,60.0,59.0,-100.00,WSW,254,0.0,2.0,94,0.00,,,-99.99,,2013-08-14 11:32:00,
2013-08-14 07:52:00,60.0,58.0,-100.00,WNW,302,1.0,2.0,94,0.00,,,-99.99,,2013-08-14 11:52:00,
2013-08-14 08:11:00,61.0,59.0,-100.00,West,260,1.0,2.0,94,0.00,,,-99.99,,2013-08-14 12:11:00,
2013-08-14 08:21:00,62.0,59.0,-100.00,SW,224,1.0,3.0,92,0.00,,,-99.99,,2013-08-14 12:21:00,
2013-08-14 08:31:00,62.0,59.0,-100.00,SW,224,1.0,3.0,92,0.00,,,-99.99,,2013-08-14 12:31:00,
2013-08-14 08:52:00,61.0,59.0,-100.00,WSW,253,0.0,2.0,91,0.00,,,-99.99,,2013-08-14 12:52:00,
2013-08-14 09:22:00,66.0,56.0,-100.00,SW,220,2.0,4.0,70,0.00,,,-99.99,,2013-08-14 13:22:00,
2013-08-14 09:31:00,66.0,56.0,-100.00,SW,220,2.0,4.0,70,0.00,,,-99.99,,2013-08-14 13:31:00,
2013-08-14 10:11:00,68.0,51.0,-100.00,South,181,3.0,7.0,54,0.00,,,-99.99,,2013-08-14 14:11:00,
2013-08-14 10:22:00,69.0,50.0,-100.00,SSW,199,3.0,8.0,51,0.00,,,-99.99,,2013-08-14 14:22:00,
2013-08-14 10:32:00,69.0,50.0,-100.00,SSW,199,3.0,8.0,51,0.00,,,-99.99,,2013-08-14 14:32:00,
2013-08-14 10:52:00,70.0,53.0,-100.00,South,188,3.0,7.0,53,0.00,,,-99.99,,2013-08-14 14:52:00,
2013-08-14 11:12:00,71.0,49.0,-100.00,NE,45,3.0,8.0,45,0.00,,,-99.99,,2013-08-14 15:12:00,
2013-08-14 11:23:00,72.0,48.0,-100.00,SSW,192,5.0,11.0,43,0.00,,,-99.99,,2013-08-14 15:23:00,
2013-08-14 11:33:00,72.0,48.0,-100.00,SSW,192,5.0,11.0,43,0.00,,,-99.99,,2013-08-14 15:33:00,
2013-08-14 11:57:00,73.0,49.0,-100.00,South,191,4.0,10.0,43,0.00,,,-99.99,,2013-08-14 15:57:00,
2013-08-14 12:13:00,72.0,48.0,-100.00,SSE,167,4.0,8.0,42,0.00,,,-99.99,,2013-08-14 16:13:00,
2013-08-14 12:28:00,74.0,47.0,-100.00,South,185,4.0,7.0,39,0.00,,,-99.99,,2013-08-14 16:28:00,
2013-08-14 12:34:00,74.0,47.0,-100.00,South,185,4.0,7.0,39,0.00,,,-99.99,,2013-08-14 16:34:00,
2013-08-14 13:06:00,74.0,47.0,-100.00,SSW,192,4.0,13.0,39,0.00,,,-99.99,,2013-08-14 17:06:00,
2013-08-14 13:20:00,74.0,48.0,-100.00,South,178,5.0,11.0,40,0.00,,,-99.99,,2013-08-14 17:20:00,
2013-08-14 13:29:00,74.0,47.0,-100.00,SSW,205,5.0,10.0,39,0.00,,,-99.99,,2013-08-14 17:29:00,
2013-08-14 13:44:00,74.0,48.0,-100.00,South,189,4.0,10.0,39,0.00,,,-99.99,,2013-08-14 17:44:00,
2013-08-14 14:33:00,-999.0,-99.9,-100.00,South,169,4.0,10.0,39,0.00,,,-99.99,,2013-08-14 18:33:00,
2013-08-14 15:03:00,-999.0,-99.9,-100.00,South,182,5.0,10.0,-999,-99.99,,,-99.99,,2013-08-14 19:03:00,
2013-08-14 15:15:00,75.0,48.0,-100.00,South,181,6.0,13.0,38,0.00,,,-99.99,,2013-08-14 19:15:00,
2013-08-14 15:35:00,76.0,49.0,-100.00,South,186,6.0,13.0,38,0.00,,,-99.99,,2013-08-14 19:35:00,
2013-08-14 15:59:00,76.0,50.0,-100.00,South,184,7.0,14.0,40,0.00,,,-99.99,,2013-08-14 19:59:00,
2013-08-14 16:12:00,77.0,51.0,-100.00,South,178,5.0,11.0,39,0.00,,,-99.99,,2013-08-14 20:12:00,
2013-08-14 16:35:00,77.0,49.0,-100.00,South,186,5.0,10.0,38,0.00,,,-99.99,,2013-08-14 20:35:00,
2013-08-14 16:53:00,77.0,49.0,-100.00,South,184,4.0,9.0,38,0.00,,,0.00,,2013-08-14 20:53:00,
2013-08-14 17:13:00,77.0,48.0,-100.00,South,185,3.0,8.0,37,0.00,,,0.00,,2013-08-14 21:13:00,
2013-08-14 17:24:00,77.0,48.0,-100.00,South,174,4.0,13.0,36,0.00,,,0.00,,2013-08-14 21:24:00,
2013-08-14 17:45:00,76.0,50.0,-100.00,WSW,253,3.0,8.0,39,0.00,,,0.00,,2013-08-14 21:45:00,
2013-08-14 17:55:00,76.0,50.0,-100.00,WSW,253,3.0,8.0,39,0.00,,,0.00,,2013-08-14 21:55:00,
2013-08-14 18:13:00,77.0,49.0,-100.00,SSE,150,3.0,8.0,37,0.00,,,0.00,,2013-08-14 22:13:00,
2013-08-14 18:23:00,76.0,48.0,-100.00,SSW,206,2.0,5.0,38,0.00,,,0.00,,2013-08-14 22:23:00,
2013-08-14 18:35:00,76.0,48.0,-100.00,SSW,206,2.0,5.0,38,0.00,,,0.00,,2013-08-14 22:35:00,
2013-08-14 18:55:00,74.0,53.0,-100.00,North,356,2.0,6.0,49,0.00,,,0.00,,2013-08-14 22:55:00,
2013-08-14 19:13:00,74.0,55.0,-100.00,WSW,246,2.0,4.0,52,0.00,,,0.00,,2013-08-14 23:13:00,
2013-08-14 19:25:00,72.0,57.0,-100.00,South,189,2.0,5.0,60,0.00,,,0.00,,2013-08-14 23:25:00,
2013-08-14 19:37:00,72.0,57.0,-100.00,South,189,2.0,5.0,60,0.00,,,0.00,,2013-08-14 23:37:00,
2013-08-14 19:56:00,71.0,55.0,-100.00,South,188,2.0,5.0,56,0.00,,,0.00,,2013-08-14 23:56:00,
2013-08-14 20:23:00,67.0,54.0,-100.00,NW,318,1.0,2.0,62,0.00,,,0.00,,2013-08-15 00:23:00,
2013-08-14 20:32:00,67.0,54.0,-100.00,NW,318,1.0,2.0,62,0.00,,,0.00,,2013-08-15 00:32:00,
2013-08-14 20:52:00,66.0,55.0,-100.00,NW,312,0.0,1.0,68,0.00,,,0.00,,2013-08-15 00:52:00,
2013-08-14 21:16:00,65.0,55.0,-100.00,WSW,248,1.0,3.0,70,0.00,,,0.00,,2013-08-15 01:16:00,
2013-08-14 21:22:00,64.0,54.0,-100.00,West,268,1.0,2.0,71,0.00,,,0.00,,2013-08-15 01:22:00,
2013-08-14 21:32:00,64.0,54.0,-100.00,West,268,1.0,2.0,71,0.00,,,0.00,,2013-08-15 01:32:00,
2013-08-14 21:52:00,63.0,55.0,-100.00,WSW,250,2.0,3.0,75,0.00,,,0.00,,2013-08-15 01:52:00,
2013-08-14 22:11:00,62.0,54.0,-100.00,West,274,1.0,2.0,75,0.00,,,0.00,,2013-08-15 02:11:00,
2013-08-14 22:21:00,61.0,55.0,-100.00,WNW,301,1.0,5.0,80,0.00,,,0.00,,2013-08-15 02:21:00,
2013-08-14 22:31:00,61.0,55.0,-100.00,WNW,301,1.0,5.0,80,0.00,,,0.00,,2013-08-15 02:31:00,
2013-08-14 22:42:00,61.0,55.0,-100.00,WNW,301,1.0,5.0,80,0.00,,,0.00,,2013-08-15 02:42:00,
2013-08-14 23:11:00,59.0,54.0,-100.00,North,0,1.0,2.0,84,0.00,,,0.00,,2013-08-15 03:11:00,
2013-08-14 23:22:00,59.0,55.0,-100.00,West,272,0.0,2.0,86,0.00,,,0.00,,2013-08-15 03:22:00,
2013-08-14 23:33:00,59.0,55.0,-100.00,West,272,0.0,2.0,86,0.00,,,0.00,,2013-08-15 03:33:00,
2013-08-14 23:53:00,59.0,55.0,-100.00,North,11,1.0,4.0,87,0.00,,,0.00,,2013-08-15 03:53:00,